KASW

Warsaw Municipal Airport

Warsaw, Indiana, USA
METAR KASW 092135Z AUTO 36006KT 10SM CLR 00/M06 A3029 RMK AO2
Observed Flight Rules
Dec-9 @ 21:35 UTC (21 minutes ago) Visual Flight Rules
Wind Visibility Clouds
360° at 6 knots 10 miles
  • Clear skies
Temperatures Readings
Current 0°C / 32°F
Dewpoint -6°C / 21°F
Humidity 64%
Altimeter 30.29" Hg
Pressure 1026 hPa
Elevation 259
METAR KASW 092135Z AUTO 36006KT 10SM CLR 00/M06 A3029 RMK AO2
Observed Flight Rules
Dec-9 @ 21:35 UTC
(21 minutes ago)
VFR
Wind Visibility
360° at 6 knots 10 miles
Clouds
  • Clear skies
Temperature Dewpoint
0°C / 32°F -6°C / 21°F
Humidity Altimeter Pressure
64% 30.29" Hg 1026 hPa